createdAt,value
2022-12-14T00:01:40.226Z,25.10
2022-12-14T00:04:07.496Z,26.97
2022-12-14T00:06:35.332Z,24.37
2022-12-14T00:09:06.101Z,24.57
2022-12-14T00:11:34.396Z,25.73
2022-12-14T00:14:02.372Z,25.07
2022-12-14T00:16:30.586Z,25.43
2022-12-14T00:18:58.683Z,25.90
2022-12-14T00:21:26.311Z,23.23
2022-12-14T00:23:54.352Z,24.03
2022-12-14T00:26:23.219Z,26.17
2022-12-14T00:28:51.316Z,26.50
2022-12-14T00:31:19.065Z,23.90
2022-12-14T00:33:46.671Z,24.07
2022-12-14T00:36:14.854Z,24.77
2022-12-14T00:38:42.148Z,24.57
2022-12-14T00:41:09.795Z,22.77
2022-12-14T00:43:37.090Z,25.80
2022-12-14T00:46:05.547Z,23.23
2022-12-14T00:48:33.314Z,23.50
2022-12-14T00:51:00.997Z,24.33
2022-12-14T00:53:28.314Z,22.90
2022-12-14T00:55:55.590Z,22.20
2022-12-14T00:58:24.694Z,24.13
2022-12-14T01:01:02.388Z,24.20
2022-12-14T01:03:30.529Z,23.30
2022-12-14T01:05:58.120Z,25.37
2022-12-14T01:08:25.423Z,22.17
2022-12-14T01:10:53.134Z,24.40
2022-12-14T01:13:20.424Z,24.20
2022-12-14T01:15:47.759Z,23.37
2022-12-14T01:18:15.091Z,23.90
2022-12-14T01:20:42.391Z,25.23
2022-12-14T01:23:09.676Z,25.40
2022-12-14T01:25:36.953Z,23.13
2022-12-14T01:28:04.345Z,23.07
2022-12-14T01:30:31.603Z,23.87
2022-12-14T01:32:58.877Z,24.23
2022-12-14T01:35:26.163Z,23.37
2022-12-14T01:37:53.456Z,22.90
2022-12-14T01:40:20.738Z,22.33
2022-12-14T01:42:47.992Z,23.60
2022-12-14T01:45:20.146Z,22.60
2022-12-14T01:47:50.148Z,20.77
2022-12-14T01:50:26.958Z,21.80
2022-12-14T01:52:57.427Z,21.80
2022-12-14T01:55:26.791Z,24.07
2022-12-14T01:58:01.451Z,21.87
2022-12-14T02:00:28.718Z,21.57
2022-12-14T02:03:00.526Z,23.20
2022-12-14T02:05:28.735Z,19.63
2022-12-14T02:07:56.862Z,22.90
2022-12-14T02:10:26.159Z,20.70
2022-12-14T02:12:57.968Z,21.77
2022-12-14T02:15:25.883Z,19.80
2022-12-14T02:17:53.172Z,20.63
2022-12-14T02:20:21.702Z,21.30
2022-12-14T02:22:54.836Z,21.30
2022-12-14T02:25:40.900Z,21.43
2022-12-14T02:28:26.704Z,21.00
2022-12-14T02:31:01.577Z,19.37
2022-12-14T02:33:42.674Z,20.23
2022-12-14T02:36:14.762Z,19.07
2022-12-14T02:39:11.348Z,21.33
2022-12-14T02:41:55.212Z,20.20
2022-12-14T02:44:22.458Z,20.67
2022-12-14T02:46:58.555Z,19.63
2022-12-14T02:49:49.153Z,20.30
2022-12-14T02:52:25.793Z,18.63
2022-12-14T02:55:02.277Z,19.27
2022-12-14T02:57:32.888Z,22.77
2022-12-14T03:00:02.840Z,22.90
2022-12-14T03:02:34.014Z,19.90
2022-12-14T03:05:02.283Z,18.93
2022-12-14T03:07:40.088Z,20.23
2022-12-14T03:10:19.424Z,18.60
2022-12-14T03:12:50.231Z,20.13
2022-12-14T03:15:18.909Z,18.40
2022-12-14T03:17:49.149Z,19.30
2022-12-14T03:20:18.973Z,19.23
2022-12-14T03:22:57.474Z,18.73
2022-12-14T03:25:28.734Z,20.53
2022-12-14T03:28:16.902Z,19.53
2022-12-14T03:30:59.837Z,16.97
2022-12-14T03:33:29.425Z,19.60
2022-12-14T03:36:03.230Z,18.17
2022-12-14T03:38:40.890Z,19.63
2022-12-14T03:41:28.227Z,19.30
2022-12-14T03:44:14.608Z,18.60
2022-12-14T03:46:47.791Z,18.57
2022-12-14T03:49:21.141Z,21.60
2022-12-14T03:51:51.466Z,20.13
2022-12-14T03:54:23.982Z,20.73
2022-12-14T03:56:58.768Z,19.47
2022-12-14T03:59:35.605Z,20.17
2022-12-14T04:02:06.310Z,18.43
2022-12-14T04:04:42.699Z,20.47
2022-12-14T04:07:22.197Z,18.70
2022-12-14T04:10:04.475Z,20.20
2022-12-14T04:13:18.881Z,18.50
2022-12-14T04:16:06.462Z,17.80
2022-12-14T04:18:59.885Z,17.47
2022-12-14T04:21:33.821Z,16.23
2022-12-14T04:24:26.289Z,18.03
2022-12-14T04:26:56.534Z,18.70
2022-12-14T04:29:47.449Z,18.97
2022-12-14T04:32:20.908Z,19.17
2022-12-14T04:34:51.139Z,16.97
2022-12-14T04:37:21.086Z,18.70
2022-12-14T04:40:14.499Z,17.93
2022-12-14T04:42:45.821Z,20.50
2022-12-14T04:45:21.444Z,19.47
2022-12-14T04:48:04.445Z,19.53
2022-12-14T04:50:34.904Z,20.60
2022-12-14T04:53:08.605Z,21.30
2022-12-14T04:55:54.363Z,18.73
2022-12-14T04:58:26.506Z,28.45
2022-12-14T05:01:03.987Z,22.43
2022-12-14T05:03:33.872Z,18.83
2022-12-14T05:06:13.433Z,19.73
2022-12-14T05:09:00.090Z,20.83
2022-12-14T05:11:52.548Z,18.70
2022-12-14T05:14:23.653Z,28.83
2022-12-14T05:16:51.268Z,16.37
2022-12-14T05:19:18.796Z,18.53
2022-12-14T05:21:49.407Z,16.87
2022-12-14T05:24:17.172Z,16.83
2022-12-14T05:26:45.161Z,20.67
2022-12-14T05:29:13.018Z,18.57
2022-12-14T05:31:42.621Z,16.60
2022-12-14T05:34:16.930Z,17.80
2022-12-14T05:36:44.612Z,16.63
2022-12-14T05:39:12.045Z,17.00
2022-12-14T05:41:39.420Z,23.17
2022-12-14T05:44:10.384Z,17.87
2022-12-14T05:46:53.562Z,17.17
2022-12-14T05:49:25.361Z,17.70
2022-12-14T05:51:52.723Z,17.73
2022-12-14T05:54:20.116Z,16.03
2022-12-14T05:56:47.581Z,16.00
2022-12-14T05:59:15.938Z,17.70
2022-12-14T06:01:43.788Z,17.67
2022-12-14T06:04:15.710Z,17.87
2022-12-14T06:06:43.484Z,15.83
2022-12-14T06:09:13.200Z,17.13
2022-12-14T06:11:41.754Z,16.63
2022-12-14T06:14:10.121Z,16.63
2022-12-14T06:16:39.964Z,15.93
2022-12-14T06:19:07.441Z,15.70
2022-12-14T06:21:35.979Z,16.63
2022-12-14T06:24:03.972Z,15.70
2022-12-14T06:26:31.980Z,17.43
2022-12-14T06:28:59.833Z,15.53
2022-12-14T06:31:28.831Z,15.47
2022-12-14T06:33:57.956Z,15.37
2022-12-14T06:36:27.200Z,16.07
2022-12-14T06:38:55.400Z,13.37
2022-12-14T06:41:24.009Z,13.60
2022-12-14T06:43:51.614Z,14.33
2022-12-14T06:46:20.466Z,14.93
2022-12-14T06:48:51.492Z,13.77
2022-12-14T06:51:18.896Z,13.87
2022-12-14T06:53:46.658Z,13.67
2022-12-14T06:56:15.488Z,17.83
2022-12-14T06:58:43.099Z,13.63
2022-12-14T07:01:13.297Z,15.60
2022-12-14T07:03:41.364Z,14.33
2022-12-14T07:06:09.192Z,15.07
2022-12-14T07:08:37.525Z,16.03
2022-12-14T07:11:09.415Z,16.43
2022-12-14T07:13:36.808Z,18.57
2022-12-14T07:16:05.153Z,16.53
2022-12-14T07:18:32.965Z,14.70
2022-12-14T07:21:03.563Z,12.93
2022-12-14T07:23:32.482Z,14.97
2022-12-14T07:26:04.110Z,15.60
2022-12-14T07:28:31.583Z,12.50
2022-12-14T07:30:59.792Z,13.93
2022-12-14T07:33:28.316Z,16.03
2022-12-14T07:36:06.182Z,13.80
2022-12-14T07:38:34.137Z,15.87
2022-12-14T07:41:09.971Z,16.13
2022-12-14T07:43:37.962Z,15.13
2022-12-14T07:46:07.035Z,14.90
2022-12-14T07:48:34.567Z,15.77
2022-12-14T07:51:06.548Z,14.30
2022-12-14T07:53:34.385Z,14.63
2022-12-14T07:56:06.087Z,14.13
2022-12-14T07:58:36.600Z,15.23
2022-12-14T08:01:10.907Z,14.07
2022-12-14T08:03:40.367Z,15.27
2022-12-14T08:06:08.626Z,14.93
2022-12-14T08:08:36.119Z,14.80
2022-12-14T08:11:05.841Z,15.73
2022-12-14T08:13:33.496Z,14.83
2022-12-14T08:16:08.138Z,16.27
2022-12-14T08:18:35.916Z,15.43
2022-12-14T08:21:04.745Z,16.67
2022-12-14T08:23:33.199Z,16.23
2022-12-14T08:26:01.504Z,15.17
2022-12-14T08:28:29.759Z,15.50
2022-12-14T08:30:57.884Z,16.27
2022-12-14T08:33:25.329Z,15.30
2022-12-14T08:35:52.837Z,16.37
2022-12-14T08:38:20.321Z,17.10
2022-12-14T08:40:47.855Z,16.17
2022-12-14T08:43:16.448Z,14.67
2022-12-14T08:45:46.365Z,14.77
2022-12-14T08:48:13.776Z,15.57
2022-12-14T08:50:41.177Z,15.73
2022-12-14T08:53:08.741Z,18.10
2022-12-14T08:55:38.671Z,16.43
2022-12-14T08:58:06.585Z,16.87
2022-12-14T09:00:34.004Z,17.57
2022-12-14T09:03:01.548Z,16.83
2022-12-14T09:05:29.030Z,16.47
2022-12-14T09:07:56.451Z,16.80
2022-12-14T09:10:23.919Z,15.83
2022-12-14T09:12:51.284Z,15.57
2022-12-14T09:15:18.700Z,15.30
2022-12-14T09:17:46.088Z,17.10
2022-12-14T09:20:14.169Z,14.83
2022-12-14T09:22:41.509Z,15.43
2022-12-14T09:25:09.411Z,15.50
2022-12-14T09:27:36.807Z,15.53
2022-12-14T09:30:04.605Z,16.37
2022-12-14T09:32:32.228Z,14.80
2022-12-14T09:34:59.593Z,15.50
2022-12-14T09:37:27.080Z,14.70
2022-12-14T09:39:54.738Z,15.87
2022-12-14T09:42:40.976Z,16.00
2022-12-14T09:45:17.663Z,15.50
2022-12-14T09:47:53.567Z,15.13
2022-12-14T09:50:21.635Z,14.43
2022-12-14T09:52:56.844Z,23.55
2022-12-14T09:55:30.025Z,18.07
2022-12-14T09:58:00.459Z,16.93
2022-12-14T10:00:33.105Z,16.20
2022-12-14T10:03:19.428Z,20.30
2022-12-14T10:05:52.868Z,20.17
2022-12-14T10:08:20.201Z,17.03
2022-12-14T10:10:47.578Z,17.33
2022-12-14T10:13:34.337Z,19.63
2022-12-14T10:16:10.148Z,18.83
2022-12-14T10:21:32.316Z,17.07
2022-12-14T10:24:02.495Z,18.30
2022-12-14T10:26:36.570Z,15.97
2022-12-14T10:29:06.709Z,17.90
2022-12-14T10:31:34.147Z,16.40
2022-12-14T10:34:06.501Z,16.87
2022-12-14T10:36:40.523Z,16.20
2022-12-14T10:39:17.859Z,16.43
2022-12-14T10:41:51.423Z,16.80
2022-12-14T10:44:37.663Z,15.77
2022-12-14T10:47:19.965Z,15.00
2022-12-14T10:50:06.939Z,16.23
2022-12-14T10:52:37.647Z,15.23
2022-12-14T10:55:10.584Z,15.00
2022-12-14T10:57:40.601Z,16.30
2022-12-14T11:00:18.474Z,14.67
2022-12-14T11:02:51.340Z,15.77
2022-12-14T11:05:34.159Z,14.70
2022-12-14T11:08:04.016Z,15.90
2022-12-14T11:10:41.438Z,15.27
2022-12-14T11:13:17.024Z,13.73
2022-12-14T11:15:48.614Z,15.87
2022-12-14T11:18:16.120Z,17.03
2022-12-14T11:20:49.679Z,15.30
2022-12-14T11:23:21.631Z,15.13
2022-12-14T11:25:54.402Z,14.83
2022-12-14T11:28:36.505Z,13.30
2022-12-14T11:31:06.215Z,14.23
2022-12-14T11:33:35.798Z,13.53
2022-12-14T11:36:03.540Z,13.43
2022-12-14T11:38:31.798Z,15.77
2022-12-14T11:41:05.912Z,14.27
2022-12-14T11:43:38.797Z,15.00
2022-12-14T11:46:07.527Z,12.90
2022-12-14T11:48:38.478Z,14.70
2022-12-14T11:51:10.925Z,15.70
2022-12-14T11:53:38.644Z,15.47
2022-12-14T11:56:08.056Z,14.97
2022-12-14T11:58:38.416Z,13.17
2022-12-14T12:01:07.421Z,12.30
2022-12-14T12:03:37.307Z,11.13
2022-12-14T12:06:09.473Z,10.37
2022-12-14T12:08:38.321Z,10.97
2022-12-14T12:11:14.870Z,11.90
2022-12-14T12:13:45.041Z,12.23
2022-12-14T12:16:20.096Z,12.57
2022-12-14T12:18:51.651Z,13.80
2022-12-14T12:21:29.824Z,12.33
2022-12-14T12:24:05.885Z,12.63
2022-12-14T12:26:36.578Z,13.03
2022-12-14T12:29:04.210Z,12.47
2022-12-14T12:31:33.419Z,12.13
2022-12-14T12:34:06.309Z,12.60
2022-12-14T12:36:33.812Z,12.43
2022-12-14T12:39:12.902Z,11.87
2022-12-14T12:42:05.761Z,12.37
2022-12-14T12:44:41.527Z,11.27
2022-12-14T12:47:38.244Z,13.07
2022-12-14T12:50:02.846Z,12.73
2022-12-14T12:52:33.552Z,12.07
2022-12-14T12:55:08.723Z,12.17
2022-12-14T12:57:39.457Z,11.83
2022-12-14T13:00:07.619Z,14.77
2022-12-14T13:02:43.229Z,13.10
2022-12-14T13:05:45.714Z,13.27
2022-12-14T13:08:09.745Z,12.63
2022-12-14T13:10:50.634Z,14.43
2022-12-14T13:13:29.963Z,12.67
2022-12-14T13:16:06.999Z,13.43
2022-12-14T13:21:35.253Z,13.47
2022-12-14T13:24:03.455Z,13.20
2022-12-14T13:26:57.622Z,14.10
2022-12-14T13:29:51.573Z,13.53
2022-12-14T13:32:36.925Z,13.43
2022-12-14T13:35:23.951Z,15.53
2022-12-14T13:38:09.893Z,14.03
2022-12-14T13:40:43.634Z,14.40
2022-12-14T13:43:49.597Z,13.43
2022-12-14T13:46:21.372Z,12.67
2022-12-14T13:48:50.410Z,14.43
2022-12-14T13:51:23.429Z,15.43
2022-12-14T13:53:56.992Z,13.47
2022-12-14T13:56:32.710Z,13.83
2022-12-14T13:59:02.796Z,13.50
2022-12-14T14:01:45.229Z,13.63
2022-12-14T14:04:15.655Z,14.67
2022-12-14T14:06:43.226Z,14.50
2022-12-14T14:09:29.532Z,12.17
2022-12-14T14:11:58.631Z,11.97
2022-12-14T14:14:44.832Z,11.67
2022-12-14T14:17:47.377Z,12.57
2022-12-14T14:20:33.105Z,10.03
2022-12-14T14:23:15.959Z,8.80
2022-12-14T14:25:46.124Z,9.53
2022-12-14T14:28:22.428Z,9.60
2022-12-14T14:30:51.559Z,9.00
2022-12-14T14:33:49.737Z,9.20
2022-12-14T14:36:25.900Z,9.67
2022-12-14T14:38:55.398Z,9.77
2022-12-14T14:41:25.356Z,8.97
2022-12-14T14:44:03.961Z,9.90
2022-12-14T14:46:37.017Z,9.43
2022-12-14T14:49:05.330Z,9.47
2022-12-14T14:51:36.420Z,11.40
2022-12-14T14:57:26.384Z,11.50
2022-12-14T14:59:59.120Z,11.90
2022-12-14T15:02:33.784Z,11.20
2022-12-14T15:07:49.682Z,9.80
2022-12-14T15:10:23.172Z,11.53
2022-12-14T15:12:53.628Z,11.27
2022-12-14T15:15:30.321Z,12.93
2022-12-14T15:18:16.080Z,11.43
2022-12-14T15:20:50.379Z,11.30
2022-12-14T15:23:17.848Z,11.13
2022-12-14T15:25:45.217Z,10.03
2022-12-14T15:28:17.044Z,10.23
2022-12-14T15:30:48.057Z,9.53
2022-12-14T15:33:24.372Z,10.17
2022-12-14T15:35:51.901Z,10.37
2022-12-14T15:38:26.742Z,10.90
2022-12-14T15:40:58.604Z,9.50
2022-12-14T15:43:26.991Z,10.57
2022-12-14T15:46:03.149Z,11.37
2022-12-14T15:48:32.874Z,10.87
2022-12-14T15:51:14.784Z,11.37
2022-12-14T15:53:42.124Z,10.63
2022-12-14T15:56:28.799Z,10.43
2022-12-14T15:59:00.500Z,12.87
2022-12-14T16:01:38.023Z,12.37
2022-12-14T16:04:07.436Z,12.70
2022-12-14T16:06:37.996Z,19.40
2022-12-14T16:09:16.889Z,22.48
2022-12-14T16:11:45.222Z,14.57
2022-12-14T16:14:31.284Z,17.38
2022-12-14T16:16:58.872Z,15.13
2022-12-14T16:19:29.845Z,12.37
2022-12-14T16:22:12.795Z,12.97
2022-12-14T16:24:53.294Z,12.77
2022-12-14T16:27:20.883Z,12.90
2022-12-14T16:30:04.752Z,12.80
2022-12-14T16:32:32.636Z,12.30
2022-12-14T16:35:01.325Z,12.60
2022-12-14T16:37:33.352Z,12.57
2022-12-14T16:40:01.383Z,16.10
2022-12-14T16:42:32.055Z,14.50
2022-12-14T16:44:59.451Z,14.13
2022-12-14T16:47:35.808Z,13.53
2022-12-14T16:50:03.896Z,14.83
2022-12-14T16:52:32.684Z,17.70
2022-12-14T16:55:19.842Z,15.40
2022-12-14T16:57:50.399Z,15.87
2022-12-14T17:00:21.012Z,13.93
2022-12-14T17:02:54.727Z,13.67
2022-12-14T17:05:23.568Z,13.43
2022-12-14T17:07:51.112Z,13.77
2022-12-14T17:10:20.729Z,14.03
2022-12-14T17:12:49.086Z,13.43
2022-12-14T17:15:17.507Z,14.63
2022-12-14T17:17:45.778Z,13.47
2022-12-14T17:20:27.771Z,16.10
2022-12-14T17:22:58.701Z,15.87
2022-12-14T17:25:29.942Z,16.30
2022-12-14T17:28:00.219Z,15.47
2022-12-14T17:30:27.636Z,14.27
2022-12-14T17:32:56.239Z,16.80
2022-12-14T17:35:25.256Z,14.43
2022-12-14T17:37:52.919Z,16.10
2022-12-14T17:40:20.290Z,13.53
2022-12-14T17:42:52.946Z,13.43
2022-12-14T17:45:24.718Z,15.23
2022-12-14T17:47:52.292Z,14.50
2022-12-14T17:50:20.085Z,16.53
2022-12-14T17:52:48.074Z,16.30
2022-12-14T17:55:19.800Z,18.73
2022-12-14T17:57:47.570Z,17.37
2022-12-14T18:00:44.161Z,15.83
2022-12-14T18:03:12.440Z,15.87
2022-12-14T18:05:46.537Z,14.13
2022-12-14T18:08:16.416Z,15.37
2022-12-14T18:10:43.945Z,14.43
2022-12-14T18:13:11.954Z,14.80
2022-12-14T18:15:40.730Z,15.67
2022-12-14T18:18:08.217Z,16.87
2022-12-14T18:20:36.668Z,16.13
2022-12-14T18:23:04.589Z,17.30
2022-12-14T18:25:32.012Z,17.57
2022-12-14T18:28:00.427Z,15.30
2022-12-14T18:30:32.111Z,16.30
2022-12-14T18:33:04.262Z,15.83
2022-12-14T18:35:33.063Z,16.87
2022-12-14T18:38:00.788Z,15.87
2022-12-14T18:40:29.377Z,16.37
2022-12-14T18:42:57.447Z,17.27
2022-12-14T18:45:26.424Z,17.20
2022-12-14T18:47:55.212Z,16.93
2022-12-14T18:50:23.016Z,16.17
2022-12-14T18:52:50.494Z,16.73
2022-12-14T18:55:19.399Z,17.40
2022-12-14T18:57:48.012Z,16.10
2022-12-14T19:00:17.289Z,15.90
2022-12-14T19:02:46.785Z,19.33
2022-12-14T19:05:17.917Z,17.97
2022-12-14T19:07:45.741Z,18.23
2022-12-14T19:10:19.989Z,18.17
2022-12-14T19:12:48.044Z,19.60
2022-12-14T19:15:17.583Z,20.93
2022-12-14T19:17:45.092Z,21.50
2022-12-14T19:20:13.541Z,22.23
2022-12-14T19:22:40.944Z,21.03
2022-12-14T19:25:09.040Z,23.43
2022-12-14T19:28:15.402Z,21.93
2022-12-14T19:30:24.395Z,21.80
2022-12-14T19:32:56.038Z,25.37
2022-12-14T19:35:25.191Z,22.13
2022-12-14T19:37:53.037Z,20.70
2022-12-14T19:40:21.619Z,25.43
2022-12-14T19:42:49.018Z,24.10
2022-12-14T19:45:17.497Z,28.93
2022-12-14T19:47:44.914Z,32.53
2022-12-14T19:50:13.558Z,34.13
2022-12-14T19:52:41.277Z,34.23
2022-12-14T19:55:10.117Z,33.10
2022-12-14T19:57:38.447Z,34.00
2022-12-14T20:00:07.557Z,28.47
2022-12-14T20:02:37.827Z,25.00
2022-12-14T20:05:08.238Z,26.27
2022-12-14T20:07:41.852Z,22.40
2022-12-14T20:10:11.169Z,21.23
2022-12-14T20:12:38.643Z,19.63
2022-12-14T20:15:06.834Z,19.23
2022-12-14T20:17:34.255Z,20.03
2022-12-14T20:20:01.692Z,20.13
2022-12-14T20:22:29.070Z,19.73
2022-12-14T20:24:56.534Z,19.83
2022-12-14T20:27:23.908Z,19.97
2022-12-14T20:29:51.450Z,20.67
2022-12-14T20:32:18.831Z,23.90
2022-12-14T20:34:46.199Z,23.60
2022-12-14T20:37:13.707Z,26.00
2022-12-14T20:39:41.111Z,22.00
2022-12-14T20:42:09.035Z,24.80
2022-12-14T20:44:37.548Z,25.77
2022-12-14T20:47:05.139Z,24.97
2022-12-14T20:49:32.956Z,27.70
2022-12-14T20:52:00.371Z,26.43
2022-12-14T20:54:29.384Z,26.23
2022-12-14T20:56:57.331Z,29.93
2022-12-14T20:59:25.160Z,30.83
2022-12-14T21:01:56.252Z,27.37
2022-12-14T21:04:24.412Z,24.70
2022-12-14T21:06:52.630Z,25.87
2022-12-14T21:09:20.021Z,24.43
2022-12-14T21:12:08.075Z,27.03
2022-12-14T21:14:37.770Z,26.87
2022-12-14T21:17:05.630Z,39.83
2022-12-14T21:19:33.647Z,40.20
2022-12-14T21:22:01.078Z,30.73
2022-12-14T21:25:01.005Z,29.00
2022-12-14T21:27:21.489Z,25.93
2022-12-14T21:29:49.043Z,21.63
2022-12-14T21:32:17.147Z,19.07
2022-12-14T21:34:44.774Z,17.63
2022-12-14T21:37:12.525Z,19.50
2022-12-14T21:39:40.315Z,18.07
2022-12-14T21:42:10.716Z,19.30
2022-12-14T21:44:38.553Z,18.73
2022-12-14T21:47:07.295Z,18.03
2022-12-14T21:49:37.449Z,17.73
2022-12-14T21:52:07.496Z,16.93
2022-12-14T21:54:35.844Z,18.07
2022-12-14T21:57:22.617Z,17.70
2022-12-14T21:59:50.100Z,16.93
2022-12-14T22:02:19.877Z,17.27
2022-12-14T22:04:47.784Z,15.47
2022-12-14T22:07:16.554Z,17.87
2022-12-14T22:09:49.617Z,16.43
2022-12-14T22:12:18.468Z,16.63
2022-12-14T22:14:45.895Z,17.70
2022-12-14T22:17:17.963Z,16.37
2022-12-14T22:19:45.588Z,16.80
2022-12-14T22:22:16.697Z,16.53
2022-12-14T22:24:47.053Z,16.43
2022-12-14T22:27:15.054Z,17.33
2022-12-14T22:29:42.597Z,16.00
2022-12-14T22:32:12.328Z,17.60
2022-12-14T22:34:41.094Z,24.63
2022-12-14T22:37:08.717Z,20.83
2022-12-14T22:39:36.227Z,16.67
2022-12-14T22:42:03.783Z,17.70
2022-12-14T22:44:31.283Z,28.92
2022-12-14T22:46:58.864Z,24.00
2022-12-14T22:49:26.479Z,20.03
2022-12-14T22:51:53.913Z,19.03
2022-12-14T22:54:25.793Z,16.33
2022-12-14T22:57:13.485Z,20.33
2022-12-14T23:00:04.731Z,19.23
2022-12-14T23:02:32.393Z,20.07
2022-12-14T23:05:00.044Z,17.13
2022-12-14T23:07:27.474Z,19.30
2022-12-14T23:10:13.516Z,23.77
2022-12-14T23:12:59.585Z,20.37
2022-12-14T23:15:45.738Z,21.80
2022-12-14T23:18:31.933Z,19.17
2022-12-14T23:21:18.005Z,23.57
2022-12-14T23:24:05.171Z,22.40
2022-12-14T23:26:52.910Z,20.97
2022-12-14T23:29:38.872Z,20.23
2022-12-14T23:32:24.892Z,25.90
2022-12-14T23:35:10.811Z,24.83
2022-12-14T23:37:56.832Z,24.93
2022-12-14T23:40:43.286Z,25.57
2022-12-14T23:43:34.205Z,27.73
2022-12-14T23:46:21.226Z,26.37
2022-12-14T23:49:12.059Z,23.30
2022-12-14T23:52:03.432Z,26.93
2022-12-14T23:54:49.407Z,24.30
2022-12-14T23:57:36.215Z,24.70
